Flight Track Log - Related Links

Times and Time Zones

All times are in EDT time to prevent confusion due to time zone crossing. See the SWA876 flight status page for this flight to view local times or setup timezone preferences in your user account.

Time Position Orientation Groundspeed Altitude Reporting Facility
EDT Latitude Longitude Course Direction KTS MPH feet Rate Location/Type
08:28AM 36.1000 -86.6833 270° West 157 181 1,300  Level Nashville TRACON
08:29AM 36.1000 -86.7167 270° West 172 198 3,600 3,176 Climbing Nashville TRACON
08:29AM 36.1333 -86.7333 338° Northwest 218 251 6,700 2,795 Climbing Nashville TRACON
08:30AM 36.1469 -86.7225 33° Northeast 241 277 7,000 2,886 Climbing Memphis Center
08:31AM 36.2147 -86.6836 25° Northeast 276 318 10,500 3,450 Climbing Memphis Center
08:32AM 36.2906 -86.6389 25° Northeast 338 389 13,900 3,250 Climbing Memphis Center
08:33AM 36.3725 -86.5914 25° Northeast 338 389 17,000 2,950 Climbing Memphis Center
08:34AM 36.4583 -86.5436 24° Northeast 338 389 19,800 2,700 Climbing Memphis Center
08:35AM 36.5506 -86.4900 25° Northeast 349 402 22,400 1,750 Climbing Memphis Center
08:36AM 36.6511 -86.4386 22° Northeast 378 435 23,300 1,608 Climbing Memphis Center
08:38AM 36.9533 -86.2844 22° Northeast 469 540 28,000 1,857 Climbing Indianapolis Center
08:39AM 37.0786 -86.2228 21° North 478 550 29,800 1,869 Climbing Indianapolis Center
08:40AM 37.2053 -86.1589 22° Northeast 485 558 31,800 1,574 Climbing Indianapolis Center
08:41AM 37.3300 -86.0850 25° Northeast 489 563 33,000 590 Climbing Indianapolis Center
08:42AM 37.4525 -86.0036 28° Northeast 492 566 33,000  Level Indianapolis Center
08:43AM 37.5764 -85.9686 13° North 471 542 33,000  Level Indianapolis Center
08:44AM 37.7033 -85.9728 359° North 457 526 33,000  Level Indianapolis Center
08:45AM 37.8300 -85.9767 359° North 455 524 33,000  Level Indianapolis Center
08:46AM 37.9558 -85.9808 359° North 453 521 33,000  Level Indianapolis Center
08:47AM 38.0828 -85.9836 359° North 454 522 33,000 390 Level Indianapolis Center
08:48AM 38.2347 -85.9883 359° North 455 524 33,800 976 Climbing Indianapolis Center
08:49AM 38.3656 -85.9922 359° North 467 537 35,000 590 Climbing Indianapolis Center
08:50AM 38.4956 -85.9967 358° North 467 537 35,000 -492 Level Indianapolis Center
08:52AM 38.6222 -85.9983 359° North 459 528 34,000 -2,066 Descending Indianapolis Center
08:53AM 38.7458 -86.0042 358° North 446 513 30,800 -1,967 Descending Indianapolis Center
08:54AM 38.8717 -86.0069 359° North 450 518 30,000 -390 Descending Indianapolis Center
08:55AM 38.9986 -86.0100 359° North 455 524 30,000  Level Indianapolis Center
08:56AM 39.1264 -86.0142 359° North 455 524 30,000  Level Indianapolis Center
08:57AM 39.2525 -86.0167 359° North 452 520 30,000  Level Indianapolis Center
08:58AM 39.3808 -86.0228 358° North 457 526 30,000  Level Indianapolis Center
08:59AM 39.5064 -86.0250 359° North 452 520 30,000  Level Indianapolis Center
09:00AM 39.6342 -86.0292 359° North 456 525 30,000 -683 Level Indianapolis Center
09:01AM 39.7614 -86.0347 358° North 456 525 28,600 -2,585 Descending Indianapolis Center
09:02AM 39.9122 -86.0383 359° North 452 520 24,700 -2,262 Descending Indianapolis Center
09:03AM 40.0294 -86.0428 358° North 432 497 24,000 -344 Descending Indianapolis Center
09:04AM 40.1358 -86.0758 347° North 401 461 24,000 -443 Level Indianapolis Center
09:05AM 40.2308 -86.1139 343° North 394 453 23,100 -512 Descending Indianapolis Center
09:06AM 40.3461 -86.1581 344° North 390 449 22,900 -605 Descending Chicago Center
09:07AM 40.4489 -86.1983 343° North 386 444 21,800 -976 Descending Chicago Center
09:08AM 40.5483 -86.2372 343° North 374 430 20,900 -1,073 Descending Chicago Center
09:09AM 40.6653 -86.2811 344° North 364 419 19,600 -1,122 Descending Chicago Center
09:10AM 40.7600 -86.3194 343° North 357 411 18,600 -1,561 Descending Chicago Center
09:11AM 40.8517 -86.3561 343° North 346 398 16,400 -2,293 Descending Chicago Center
09:12AM 40.9394 -86.3903 344° North 332 382 13,900 -2,439 Descending Chicago Center
09:13AM 41.0264 -86.4239 344° North 327 376 11,400 -1,659 Descending Chicago Center
09:14AM 41.0922 -86.5006 319° Northwest 316 364 10,500 -732 Descending Chicago Center
09:15AM 41.1483 -86.5869 311° West 315 362 9,900 -244 Descending Chicago Center
09:16AM 41.2036 -86.6728 311° West 308 354 10,000 49 Climbing Chicago Center
09:17AM 41.2708 -86.7747 311° West 306 352 10,000  Level Chicago Center
09:18AM 41.3264 -86.8611 311° West 309 356 10,000 -390 Level Chicago Center
09:19AM 41.3725 -86.9347 310° West 269 310 9,200 -878 Descending Chicago Center
09:20AM 41.4158 -87.0036 310° West 250 288 8,200 -976 Descending Chicago Center
09:21AM 41.4617 -87.0717 312° West 248 285 7,200 -976 Descending Chicago Center
09:22AM 41.4803 -87.1536 287° West 240 276 6,200 -600 Descending Chicago Center
09:23AM 41.4833 -87.2667 272° West 244 281 6,000 -97 Descending Chicago TRACON
09:24AM 41.5000 -87.3500 285° West 232 267 6,000  Level Chicago TRACON
09:25AM 41.5333 -87.4000 312° West 201 231 6,000  Level Chicago TRACON
09:26AM 41.5833 -87.4500 323° Northwest 197 227 6,000 -389 Level Chicago TRACON
09:27AM 41.6000 -87.5000 294° West 193 222 5,300 -794 Descending Chicago TRACON
09:27AM 41.6136 -87.5075 338° Northwest 196 226 5,100 -667 Descending Chicago Center
09:28AM 41.6481 -87.5586 312° West 192 221 4,400 -780 Descending Chicago Center
09:29AM 41.6825 -87.6106 312° West 189 217 3,500 -1,034 Descending Chicago Center
09:30AM 41.7000 -87.6333 316° Northwest 176 203 2,900 -1,059 Descending Chicago TRACON
09:31AM 41.7333 -87.6833 312° West 150 173 2,000 -842 Descending Chicago TRACON
09:32AM 41.7500 -87.7167 304° West 134 154 1,300 -778 Descending Chicago TRACON

Login

Don't have an account? Register now (free) for customized features, flight alerts, and more!